sensor_id;sensor_type;location;lat;lon;timestamp;P1;durP1;ratioP1;P2;durP2;ratioP2
2123;SDS011;1068;52.460;13.528;2023-04-01T00:01:16;1.70;;;1.60;;
2123;SDS011;1068;52.460;13.528;2023-04-01T00:03:43;2.57;;;2.37;;
2123;SDS011;1068;52.460;13.528;2023-04-01T00:06:11;2.33;;;2.13;;
2123;SDS011;1068;52.460;13.528;2023-04-01T00:08:39;2.40;;;2.20;;
2123;SDS011;1068;52.460;13.528;2023-04-01T00:11:06;2.50;;;2.40;;
2123;SDS011;1068;52.460;13.528;2023-04-01T00:13:34;2.30;;;2.20;;
2123;SDS011;1068;52.460;13.528;2023-04-01T00:16:01;3.33;;;2.87;;
2123;SDS011;1068;52.460;13.528;2023-04-01T00:18:29;3.33;;;2.63;;
2123;SDS011;1068;52.460;13.528;2023-04-01T00:20:56;2.63;;;2.33;;
2123;SDS011;1068;52.460;13.528;2023-04-01T00:23:22;2.57;;;2.47;;
2123;SDS011;1068;52.460;13.528;2023-04-01T00:25:49;2.60;;;2.27;;
2123;SDS011;1068;52.460;13.528;2023-04-01T00:28:17;2.10;;;2.00;;
2123;SDS011;1068;52.460;13.528;2023-04-01T00:30:45;3.70;;;2.77;;
2123;SDS011;1068;52.460;13.528;2023-04-01T00:33:13;5.17;;;2.30;;
2123;SDS011;1068;52.460;13.528;2023-04-01T00:35:40;2.63;;;2.47;;
2123;SDS011;1068;52.460;13.528;2023-04-01T00:38:07;2.47;;;2.30;;
2123;SDS011;1068;52.460;13.528;2023-04-01T00:40:36;2.13;;;2.00;;
2123;SDS011;1068;52.460;13.528;2023-04-01T00:43:08;2.57;;;2.30;;
2123;SDS011;1068;52.460;13.528;2023-04-01T00:45:36;5.43;;;2.10;;
2123;SDS011;1068;52.460;13.528;2023-04-01T00:48:07;8.67;;;2.53;;
2123;SDS011;1068;52.460;13.528;2023-04-01T00:50:34;2.47;;;2.13;;
2123;SDS011;1068;52.460;13.528;2023-04-01T00:53:02;2.57;;;2.37;;
2123;SDS011;1068;52.460;13.528;2023-04-01T00:55:30;2.20;;;2.00;;
2123;SDS011;1068;52.460;13.528;2023-04-01T00:57:58;2.73;;;2.53;;
2123;SDS011;1068;52.460;13.528;2023-04-01T01:00:26;2.77;;;2.57;;
2123;SDS011;1068;52.460;13.528;2023-04-01T01:02:53;1.90;;;1.80;;
2123;SDS011;1068;52.460;13.528;2023-04-01T01:05:23;3.93;;;2.67;;
2123;SDS011;1068;52.460;13.528;2023-04-01T01:07:54;2.50;;;2.30;;
2123;SDS011;1068;52.460;13.528;2023-04-01T01:10:23;3.97;;;2.80;;
2123;SDS011;1068;52.460;13.528;2023-04-01T01:12:54;3.70;;;2.90;;
2123;SDS011;1068;52.460;13.528;2023-04-01T01:15:23;4.90;;;4.20;;
2123;SDS011;1068;52.460;13.528;2023-04-01T01:17:53;3.60;;;3.07;;
2123;SDS011;1068;52.460;13.528;2023-04-01T01:20:27;4.30;;;2.60;;
2123;SDS011;1068;52.460;13.528;2023-04-01T01:23:04;3.10;;;2.20;;
2123;SDS011;1068;52.460;13.528;2023-04-01T01:25:38;2.60;;;2.40;;
2123;SDS011;1068;52.460;13.528;2023-04-01T01:28:13;3.30;;;2.60;;
2123;SDS011;1068;52.460;13.528;2023-04-01T01:30:44;2.40;;;2.20;;
2123;SDS011;1068;52.460;13.528;2023-04-01T01:33:18;4.20;;;2.20;;
2123;SDS011;1068;52.460;13.528;2023-04-01T01:35:50;2.10;;;2.00;;
2123;SDS011;1068;52.460;13.528;2023-04-01T01:38:19;4.17;;;2.90;;
2123;SDS011;1068;52.460;13.528;2023-04-01T01:40:48;3.03;;;2.80;;
2123;SDS011;1068;52.460;13.528;2023-04-01T01:43:19;3.33;;;2.47;;
2123;SDS011;1068;52.460;13.528;2023-04-01T01:45:48;2.70;;;2.50;;
2123;SDS011;1068;52.460;13.528;2023-04-01T01:48:16;2.93;;;2.40;;
2123;SDS011;1068;52.460;13.528;2023-04-01T01:50:43;3.17;;;2.87;;
2123;SDS011;1068;52.460;13.528;2023-04-01T01:53:12;3.23;;;3.00;;
2123;SDS011;1068;52.460;13.528;2023-04-01T01:55:40;3.50;;;2.90;;
2123;SDS011;1068;52.460;13.528;2023-04-01T01:58:08;4.47;;;2.70;;
2123;SDS011;1068;52.460;13.528;2023-04-01T02:00:35;2.90;;;2.70;;
2123;SDS011;1068;52.460;13.528;2023-04-01T02:03:02;2.57;;;2.47;;
2123;SDS011;1068;52.460;13.528;2023-04-01T02:05:30;2.97;;;2.77;;
2123;SDS011;1068;52.460;13.528;2023-04-01T02:08:00;3.00;;;2.80;;
2123;SDS011;1068;52.460;13.528;2023-04-01T02:10:29;2.90;;;2.70;;
2123;SDS011;1068;52.460;13.528;2023-04-01T02:12:59;3.80;;;2.67;;
2123;SDS011;1068;52.460;13.528;2023-04-01T02:15:28;3.57;;;2.70;;
2123;SDS011;1068;52.460;13.528;2023-04-01T02:17:58;2.80;;;2.70;;
2123;SDS011;1068;52.460;13.528;2023-04-01T02:20:25;4.77;;;3.57;;
2123;SDS011;1068;52.460;13.528;2023-04-01T02:22:54;4.23;;;2.63;;
2123;SDS011;1068;52.460;13.528;2023-04-01T02:25:23;2.90;;;2.70;;
2123;SDS011;1068;52.460;13.528;2023-04-01T02:27:53;3.00;;;2.80;;
2123;SDS011;1068;52.460;13.528;2023-04-01T02:30:21;3.70;;;3.40;;
2123;SDS011;1068;52.460;13.528;2023-04-01T02:32:48;2.80;;;2.70;;
2123;SDS011;1068;52.460;13.528;2023-04-01T02:35:16;5.13;;;3.47;;
2123;SDS011;1068;52.460;13.528;2023-04-01T02:37:44;3.03;;;2.83;;
2123;SDS011;1068;52.460;13.528;2023-04-01T02:40:13;3.13;;;2.90;;
2123;SDS011;1068;52.460;13.528;2023-04-01T02:42:41;2.90;;;2.67;;
2123;SDS011;1068;52.460;13.528;2023-04-01T02:45:10;3.37;;;3.07;;
2123;SDS011;1068;52.460;13.528;2023-04-01T02:47:37;3.90;;;3.33;;
2123;SDS011;1068;52.460;13.528;2023-04-01T02:50:05;3.63;;;3.33;;
2123;SDS011;1068;52.460;13.528;2023-04-01T02:52:32;4.83;;;3.27;;
2123;SDS011;1068;52.460;13.528;2023-04-01T02:54:59;3.80;;;3.50;;
2123;SDS011;1068;52.460;13.528;2023-04-01T02:57:26;6.10;;;3.90;;
2123;SDS011;1068;52.460;13.528;2023-04-01T02:59:53;4.33;;;3.60;;
2123;SDS011;1068;52.460;13.528;2023-04-01T03:02:21;5.60;;;3.80;;
2123;SDS011;1068;52.460;13.528;2023-04-01T03:04:48;4.20;;;3.80;;
2123;SDS011;1068;52.460;13.528;2023-04-01T03:07:15;4.63;;;3.43;;
2123;SDS011;1068;52.460;13.528;2023-04-01T03:09:42;5.27;;;3.83;;
2123;SDS011;1068;52.460;13.528;2023-04-01T03:12:09;3.87;;;3.67;;
2123;SDS011;1068;52.460;13.528;2023-04-01T03:14:36;4.13;;;3.67;;
2123;SDS011;1068;52.460;13.528;2023-04-01T03:17:03;4.47;;;4.13;;
2123;SDS011;1068;52.460;13.528;2023-04-01T03:19:31;3.30;;;3.03;;
2123;SDS011;1068;52.460;13.528;2023-04-01T03:21:58;3.43;;;3.23;;
2123;SDS011;1068;52.460;13.528;2023-04-01T03:24:25;3.37;;;3.07;;
2123;SDS011;1068;52.460;13.528;2023-04-01T03:26:52;4.00;;;3.67;;
2123;SDS011;1068;52.460;13.528;2023-04-01T03:29:19;5.60;;;3.80;;
2123;SDS011;1068;52.460;13.528;2023-04-01T03:31:46;3.83;;;3.53;;
2123;SDS011;1068;52.460;13.528;2023-04-01T03:34:13;3.37;;;3.10;;
2123;SDS011;1068;52.460;13.528;2023-04-01T03:36:41;3.73;;;3.43;;
2123;SDS011;1068;52.460;13.528;2023-04-01T03:39:08;4.13;;;3.73;;
2123;SDS011;1068;52.460;13.528;2023-04-01T03:41:35;5.50;;;3.40;;
2123;SDS011;1068;52.460;13.528;2023-04-01T03:44:03;3.97;;;3.33;;
2123;SDS011;1068;52.460;13.528;2023-04-01T03:46:30;3.30;;;3.03;;
2123;SDS011;1068;52.460;13.528;2023-04-01T03:48:57;3.93;;;3.53;;
2123;SDS011;1068;52.460;13.528;2023-04-01T03:51:24;3.03;;;2.83;;
2123;SDS011;1068;52.460;13.528;2023-04-01T03:53:52;3.20;;;2.90;;
2123;SDS011;1068;52.460;13.528;2023-04-01T03:56:19;3.90;;;3.60;;
2123;SDS011;1068;52.460;13.528;2023-04-01T03:58:46;3.37;;;2.90;;
2123;SDS011;1068;52.460;13.528;2023-04-01T04:01:14;4.07;;;2.83;;
2123;SDS011;1068;52.460;13.528;2023-04-01T04:03:41;3.07;;;2.87;;
2123;SDS011;1068;52.460;13.528;2023-04-01T04:06:10;3.60;;;3.30;;
2123;SDS011;1068;52.460;13.528;2023-04-01T04:08:37;4.23;;;3.67;;
2123;SDS011;1068;52.460;13.528;2023-04-01T04:11:06;3.47;;;3.17;;
2123;SDS011;1068;52.460;13.528;2023-04-01T04:13:33;4.80;;;3.03;;
2123;SDS011;1068;52.460;13.528;2023-04-01T04:16:00;3.97;;;3.20;;
2123;SDS011;1068;52.460;13.528;2023-04-01T04:18:27;4.47;;;3.20;;
2123;SDS011;1068;52.460;13.528;2023-04-01T04:20:54;3.27;;;2.80;;
2123;SDS011;1068;52.460;13.528;2023-04-01T04:23:21;3.53;;;3.23;;
2123;SDS011;1068;52.460;13.528;2023-04-01T04:25:55;3.20;;;3.00;;
2123;SDS011;1068;52.460;13.528;2023-04-01T04:28:24;3.23;;;2.83;;
2123;SDS011;1068;52.460;13.528;2023-04-01T04:30:51;3.30;;;3.00;;
2123;SDS011;1068;52.460;13.528;2023-04-01T04:33:18;3.20;;;2.90;;
2123;SDS011;1068;52.460;13.528;2023-04-01T04:35:45;3.70;;;3.40;;
2123;SDS011;1068;52.460;13.528;2023-04-01T04:38:12;3.97;;;3.63;;
2123;SDS011;1068;52.460;13.528;2023-04-01T04:40:39;3.33;;;3.13;;
2123;SDS011;1068;52.460;13.528;2023-04-01T04:43:06;3.40;;;3.10;;
2123;SDS011;1068;52.460;13.528;2023-04-01T04:45:34;5.23;;;3.63;;
2123;SDS011;1068;52.460;13.528;2023-04-01T04:48:01;4.70;;;3.40;;
2123;SDS011;1068;52.460;13.528;2023-04-01T04:50:28;3.60;;;3.30;;
2123;SDS011;1068;52.460;13.528;2023-04-01T04:52:55;3.50;;;3.10;;
2123;SDS011;1068;52.460;13.528;2023-04-01T04:55:22;4.17;;;2.80;;
2123;SDS011;1068;52.460;13.528;2023-04-01T04:57:49;5.47;;;3.63;;
2123;SDS011;1068;52.460;13.528;2023-04-01T05:00:16;4.43;;;3.50;;
2123;SDS011;1068;52.460;13.528;2023-04-01T05:02:44;3.60;;;3.23;;
2123;SDS011;1068;52.460;13.528;2023-04-01T05:05:11;3.80;;;3.50;;
2123;SDS011;1068;52.460;13.528;2023-04-01T05:07:38;4.77;;;4.37;;
2123;SDS011;1068;52.460;13.528;2023-04-01T05:10:05;4.43;;;3.90;;
2123;SDS011;1068;52.460;13.528;2023-04-01T05:12:32;5.13;;;4.60;;
2123;SDS011;1068;52.460;13.528;2023-04-01T05:15:02;5.63;;;4.90;;
2123;SDS011;1068;52.460;13.528;2023-04-01T05:17:29;5.90;;;5.30;;
2123;SDS011;1068;52.460;13.528;2023-04-01T05:19:57;4.70;;;4.30;;
2123;SDS011;1068;52.460;13.528;2023-04-01T05:22:24;5.30;;;4.30;;
2123;SDS011;1068;52.460;13.528;2023-04-01T05:24:52;6.80;;;4.80;;
2123;SDS011;1068;52.460;13.528;2023-04-01T05:27:19;5.20;;;4.63;;
2123;SDS011;1068;52.460;13.528;2023-04-01T05:29:45;4.43;;;4.10;;
2123;SDS011;1068;52.460;13.528;2023-04-01T05:32:13;5.03;;;4.43;;
2123;SDS011;1068;52.460;13.528;2023-04-01T05:34:40;10.63;;;5.90;;
2123;SDS011;1068;52.460;13.528;2023-04-01T05:37:09;5.47;;;4.70;;
2123;SDS011;1068;52.460;13.528;2023-04-01T05:39:36;5.30;;;4.90;;
2123;SDS011;1068;52.460;13.528;2023-04-01T05:42:03;7.90;;;4.33;;
2123;SDS011;1068;52.460;13.528;2023-04-01T05:44:31;4.60;;;4.20;;
2123;SDS011;1068;52.460;13.528;2023-04-01T05:46:58;5.80;;;4.80;;
2123;SDS011;1068;52.460;13.528;2023-04-01T05:49:25;4.73;;;4.33;;
2123;SDS011;1068;52.460;13.528;2023-04-01T05:51:52;5.07;;;4.40;;
2123;SDS011;1068;52.460;13.528;2023-04-01T05:54:20;4.47;;;4.07;;
2123;SDS011;1068;52.460;13.528;2023-04-01T05:56:47;9.10;;;4.60;;
2123;SDS011;1068;52.460;13.528;2023-04-01T05:59:14;4.93;;;4.50;;
2123;SDS011;1068;52.460;13.528;2023-04-01T06:01:41;4.30;;;3.97;;
2123;SDS011;1068;52.460;13.528;2023-04-01T06:04:10;7.57;;;4.70;;
2123;SDS011;1068;52.460;13.528;2023-04-01T06:06:37;5.27;;;4.87;;
2123;SDS011;1068;52.460;13.528;2023-04-01T06:09:07;6.27;;;5.67;;
2123;SDS011;1068;52.460;13.528;2023-04-01T06:11:40;6.93;;;5.27;;
2123;SDS011;1068;52.460;13.528;2023-04-01T06:14:12;5.20;;;4.70;;
2123;SDS011;1068;52.460;13.528;2023-04-01T06:16:45;7.27;;;4.77;;
2123;SDS011;1068;52.460;13.528;2023-04-01T06:19:19;5.00;;;4.23;;
2123;SDS011;1068;52.460;13.528;2023-04-01T06:22:11;8.30;;;5.33;;
2123;SDS011;1068;52.460;13.528;2023-04-01T06:24:43;4.50;;;4.10;;
2123;SDS011;1068;52.460;13.528;2023-04-01T06:27:18;6.10;;;4.60;;
2123;SDS011;1068;52.460;13.528;2023-04-01T06:29:49;4.33;;;3.93;;
2123;SDS011;1068;52.460;13.528;2023-04-01T06:32:22;5.00;;;4.50;;
2123;SDS011;1068;52.460;13.528;2023-04-01T06:34:54;8.03;;;4.70;;
2123;SDS011;1068;52.460;13.528;2023-04-01T06:37:30;4.07;;;3.67;;
2123;SDS011;1068;52.460;13.528;2023-04-01T06:40:06;3.83;;;3.47;;
2123;SDS011;1068;52.460;13.528;2023-04-01T06:42:46;6.40;;;3.90;;
2123;SDS011;1068;52.460;13.528;2023-04-01T06:45:17;4.80;;;3.87;;
2123;SDS011;1068;52.460;13.528;2023-04-01T06:47:51;4.40;;;4.00;;
2123;SDS011;1068;52.460;13.528;2023-04-01T06:50:22;3.87;;;3.47;;
2123;SDS011;1068;52.460;13.528;2023-04-01T06:52:53;5.00;;;3.63;;
2123;SDS011;1068;52.460;13.528;2023-04-01T06:55:24;3.63;;;2.90;;
2123;SDS011;1068;52.460;13.528;2023-04-01T06:57:54;4.13;;;3.37;;
2123;SDS011;1068;52.460;13.528;2023-04-01T07:00:24;3.57;;;3.17;;
2123;SDS011;1068;52.460;13.528;2023-04-01T07:02:54;4.00;;;3.60;;
2123;SDS011;1068;52.460;13.528;2023-04-01T07:05:23;3.60;;;2.77;;
2123;SDS011;1068;52.460;13.528;2023-04-01T07:07:53;4.23;;;3.77;;
2123;SDS011;1068;52.460;13.528;2023-04-01T07:10:25;5.10;;;3.60;;
2123;SDS011;1068;52.460;13.528;2023-04-01T07:12:56;4.07;;;3.33;;
2123;SDS011;1068;52.460;13.528;2023-04-01T07:15:27;3.23;;;3.03;;
2123;SDS011;1068;52.460;13.528;2023-04-01T07:17:56;4.40;;;2.87;;
2123;SDS011;1068;52.460;13.528;2023-04-01T07:20:24;3.70;;;2.93;;
2123;SDS011;1068;52.460;13.528;2023-04-01T07:22:53;7.23;;;3.40;;
2123;SDS011;1068;52.460;13.528;2023-04-01T07:25:22;3.97;;;3.50;;
2123;SDS011;1068;52.460;13.528;2023-04-01T07:27:52;7.00;;;6.30;;
2123;SDS011;1068;52.460;13.528;2023-04-01T07:30:21;4.60;;;4.20;;
2123;SDS011;1068;52.460;13.528;2023-04-01T07:32:50;2.73;;;2.53;;
2123;SDS011;1068;52.460;13.528;2023-04-01T07:35:21;4.33;;;2.73;;
2123;SDS011;1068;52.460;13.528;2023-04-01T07:37:53;3.10;;;2.30;;
2123;SDS011;1068;52.460;13.528;2023-04-01T07:40:27;2.50;;;2.30;;
2123;SDS011;1068;52.460;13.528;2023-04-01T07:43:05;4.13;;;2.20;;
2123;SDS011;1068;52.460;13.528;2023-04-01T07:45:39;3.87;;;3.53;;
2123;SDS011;1068;52.460;13.528;2023-04-01T07:48:13;4.67;;;2.87;;
2123;SDS011;1068;52.460;13.528;2023-04-01T07:50:46;3.93;;;2.60;;
2123;SDS011;1068;52.460;13.528;2023-04-01T07:53:18;3.80;;;2.60;;
2123;SDS011;1068;52.460;13.528;2023-04-01T07:55:50;3.90;;;2.97;;
2123;SDS011;1068;52.460;13.528;2023-04-01T07:58:23;6.20;;;2.83;;
2123;SDS011;1068;52.460;13.528;2023-04-01T08:00:54;6.10;;;2.70;;
2123;SDS011;1068;52.460;13.528;2023-04-01T08:06:09;3.17;;;2.20;;
2123;SDS011;1068;52.460;13.528;2023-04-01T08:08:42;3.57;;;2.40;;
2123;SDS011;1068;52.460;13.528;2023-04-01T08:11:15;2.90;;;2.23;;
2123;SDS011;1068;52.460;13.528;2023-04-01T08:13:45;5.60;;;1.93;;
2123;SDS011;1068;52.460;13.528;2023-04-01T08:16:20;1.73;;;1.63;;
2123;SDS011;1068;52.460;13.528;2023-04-01T08:18:51;1.97;;;1.50;;
2123;SDS011;1068;52.460;13.528;2023-04-01T08:21:21;4.30;;;1.93;;
2123;SDS011;1068;52.460;13.528;2023-04-01T08:23:51;2.40;;;1.50;;
2123;SDS011;1068;52.460;13.528;2023-04-01T08:26:20;2.30;;;1.30;;
2123;SDS011;1068;52.460;13.528;2023-04-01T08:28:51;1.90;;;1.60;;
2123;SDS011;1068;52.460;13.528;2023-04-01T08:31:24;1.70;;;1.50;;
2123;SDS011;1068;52.460;13.528;2023-04-01T08:33:52;1.73;;;1.63;;
2123;SDS011;1068;52.460;13.528;2023-04-01T08:36:20;2.30;;;1.63;;
2123;SDS011;1068;52.460;13.528;2023-04-01T08:38:49;3.20;;;1.67;;
2123;SDS011;1068;52.460;13.528;2023-04-01T08:41:25;2.67;;;2.10;;
2123;SDS011;1068;52.460;13.528;2023-04-01T08:44:12;3.03;;;2.03;;
2123;SDS011;1068;52.460;13.528;2023-04-01T08:46:51;2.60;;;1.83;;
2123;SDS011;1068;52.460;13.528;2023-04-01T08:49:25;2.43;;;1.77;;
2123;SDS011;1068;52.460;13.528;2023-04-01T08:52:11;2.77;;;1.47;;
2123;SDS011;1068;52.460;13.528;2023-04-01T08:54:46;2.67;;;1.50;;
2123;SDS011;1068;52.460;13.528;2023-04-01T08:57:18;2.80;;;1.60;;
2123;SDS011;1068;52.460;13.528;2023-04-01T09:00:00;1.60;;;1.43;;
2123;SDS011;1068;52.460;13.528;2023-04-01T09:02:45;2.03;;;1.37;;
2123;SDS011;1068;52.460;13.528;2023-04-01T09:05:28;2.40;;;1.40;;
2123;SDS011;1068;52.460;13.528;2023-04-01T09:08:01;1.40;;;1.30;;
2123;SDS011;1068;52.460;13.528;2023-04-01T09:10:33;2.77;;;1.63;;
2123;SDS011;1068;52.460;13.528;2023-04-01T09:13:09;2.80;;;2.07;;
2123;SDS011;1068;52.460;13.528;2023-04-01T09:21:13;3.20;;;2.90;;
2123;SDS011;1068;52.460;13.528;2023-04-01T09:23:55;3.17;;;2.87;;
2123;SDS011;1068;52.460;13.528;2023-04-01T09:26:34;2.97;;;2.77;;
2123;SDS011;1068;52.460;13.528;2023-04-01T09:29:05;2.40;;;2.30;;
2123;SDS011;1068;52.460;13.528;2023-04-01T09:31:53;2.40;;;2.20;;
2123;SDS011;1068;52.460;13.528;2023-04-01T09:34:37;3.43;;;3.23;;
2123;SDS011;1068;52.460;13.528;2023-04-01T09:37:21;2.60;;;2.40;;
2123;SDS011;1068;52.460;13.528;2023-04-01T09:39:53;3.43;;;3.13;;
2123;SDS011;1068;52.460;13.528;2023-04-01T09:42:29;3.37;;;3.17;;
2123;SDS011;1068;52.460;13.528;2023-04-01T09:44:58;4.33;;;3.97;;
2123;SDS011;1068;52.460;13.528;2023-04-01T09:47:40;3.80;;;3.60;;
2123;SDS011;1068;52.460;13.528;2023-04-01T09:50:14;5.07;;;4.70;;
2123;SDS011;1068;52.460;13.528;2023-04-01T09:52:46;5.30;;;4.90;;
2123;SDS011;1068;52.460;13.528;2023-04-01T09:55:19;4.40;;;4.10;;
2123;SDS011;1068;52.460;13.528;2023-04-01T09:57:53;5.20;;;4.90;;
2123;SDS011;1068;52.460;13.528;2023-04-01T10:00:31;5.43;;;5.03;;
2123;SDS011;1068;52.460;13.528;2023-04-01T10:03:05;5.43;;;4.93;;
2123;SDS011;1068;52.460;13.528;2023-04-01T10:08:38;4.60;;;4.30;;
2123;SDS011;1068;52.460;13.528;2023-04-01T10:11:15;5.93;;;5.53;;
2123;SDS011;1068;52.460;13.528;2023-04-01T10:19:48;4.90;;;4.60;;
2123;SDS011;1068;52.460;13.528;2023-04-01T10:22:25;5.33;;;4.93;;
2123;SDS011;1068;52.460;13.528;2023-04-01T10:25:16;5.03;;;4.67;;
2123;SDS011;1068;52.460;13.528;2023-04-01T10:30:37;6.30;;;5.80;;
2123;SDS011;1068;52.460;13.528;2023-04-01T10:33:25;7.33;;;6.83;;
2123;SDS011;1068;52.460;13.528;2023-04-01T10:36:10;7.70;;;7.10;;
2123;SDS011;1068;52.460;13.528;2023-04-01T10:38:56;8.60;;;7.20;;
2123;SDS011;1068;52.460;13.528;2023-04-01T10:41:38;7.07;;;6.47;;
2123;SDS011;1068;52.460;13.528;2023-04-01T10:46:59;6.30;;;5.80;;
2123;SDS011;1068;52.460;13.528;2023-04-01T10:49:39;6.77;;;6.23;;
2123;SDS011;1068;52.460;13.528;2023-04-01T10:54:56;7.17;;;6.60;;
2123;SDS011;1068;52.460;13.528;2023-04-01T10:57:36;6.77;;;6.20;;
2123;SDS011;1068;52.460;13.528;2023-04-01T11:00:15;7.60;;;6.90;;
2123;SDS011;1068;52.460;13.528;2023-04-01T11:02:51;7.33;;;6.67;;
2123;SDS011;1068;52.460;13.528;2023-04-01T11:08:23;7.30;;;6.70;;
2123;SDS011;1068;52.460;13.528;2023-04-01T11:11:09;6.17;;;5.57;;
2123;SDS011;1068;52.460;13.528;2023-04-01T11:14:01;5.40;;;5.00;;
2123;SDS011;1068;52.460;13.528;2023-04-01T11:16:57;4.30;;;4.00;;
2123;SDS011;1068;52.460;13.528;2023-04-01T11:22:20;6.27;;;5.67;;
2123;SDS011;1068;52.460;13.528;2023-04-01T11:24:54;6.53;;;5.90;;
2123;SDS011;1068;52.460;13.528;2023-04-01T11:27:35;6.43;;;5.93;;
2123;SDS011;1068;52.460;13.528;2023-04-01T11:30:14;4.67;;;4.37;;
2123;SDS011;1068;52.460;13.528;2023-04-01T11:32:46;5.80;;;5.20;;
2123;SDS011;1068;52.460;13.528;2023-04-01T11:35:22;4.23;;;3.93;;
2123;SDS011;1068;52.460;13.528;2023-04-01T11:37:53;6.23;;;3.57;;
2123;SDS011;1068;52.460;13.528;2023-04-01T11:40:24;3.33;;;3.13;;
2123;SDS011;1068;52.460;13.528;2023-04-01T11:42:54;3.40;;;3.10;;
2123;SDS011;1068;52.460;13.528;2023-04-01T11:45:27;4.30;;;4.00;;
2123;SDS011;1068;52.460;13.528;2023-04-01T11:48:09;2.90;;;2.70;;
2123;SDS011;1068;52.460;13.528;2023-04-01T11:50:44;3.93;;;3.53;;
2123;SDS011;1068;52.460;13.528;2023-04-01T11:53:15;4.90;;;4.50;;
2123;SDS011;1068;52.460;13.528;2023-04-01T11:55:47;5.07;;;4.67;;
2123;SDS011;1068;52.460;13.528;2023-04-01T11:58:31;4.40;;;4.10;;
2123;SDS011;1068;52.460;13.528;2023-04-01T12:01:18;4.83;;;4.40;;
2123;SDS011;1068;52.460;13.528;2023-04-01T12:06:30;5.50;;;5.07;;
2123;SDS011;1068;52.460;13.528;2023-04-01T12:09:01;5.17;;;4.67;;
2123;SDS011;1068;52.460;13.528;2023-04-01T12:11:33;5.30;;;4.80;;
2123;SDS011;1068;52.460;13.528;2023-04-01T12:14:03;6.03;;;5.63;;
2123;SDS011;1068;52.460;13.528;2023-04-01T12:16:39;6.07;;;5.60;;
2123;SDS011;1068;52.460;13.528;2023-04-01T12:19:10;6.43;;;5.80;;
2123;SDS011;1068;52.460;13.528;2023-04-01T12:21:38;6.23;;;5.63;;
2123;SDS011;1068;52.460;13.528;2023-04-01T12:24:20;5.70;;;5.10;;
2123;SDS011;1068;52.460;13.528;2023-04-01T12:26:52;5.60;;;5.10;;
2123;SDS011;1068;52.460;13.528;2023-04-01T12:29:33;5.43;;;4.83;;
2123;SDS011;1068;52.460;13.528;2023-04-01T12:32:06;5.40;;;4.93;;
2123;SDS011;1068;52.460;13.528;2023-04-01T12:34:48;10.43;;;8.20;;
2123;SDS011;1068;52.460;13.528;2023-04-01T12:37:18;7.43;;;6.80;;
2123;SDS011;1068;52.460;13.528;2023-04-01T12:39:51;5.80;;;5.30;;
2123;SDS011;1068;52.460;13.528;2023-04-01T12:42:30;5.97;;;5.50;;
2123;SDS011;1068;52.460;13.528;2023-04-01T12:45:03;5.13;;;4.83;;
2123;SDS011;1068;52.460;13.528;2023-04-01T12:47:54;5.70;;;5.20;;
2123;SDS011;1068;52.460;13.528;2023-04-01T12:50:28;6.60;;;6.10;;
2123;SDS011;1068;52.460;13.528;2023-04-01T12:53:03;6.03;;;5.53;;
2123;SDS011;1068;52.460;13.528;2023-04-01T12:55:38;5.10;;;4.70;;
2123;SDS011;1068;52.460;13.528;2023-04-01T13:01:07;5.17;;;4.77;;
2123;SDS011;1068;52.460;13.528;2023-04-01T13:06:33;5.30;;;4.90;;
2123;SDS011;1068;52.460;13.528;2023-04-01T13:09:06;5.13;;;4.73;;
2123;SDS011;1068;52.460;13.528;2023-04-01T13:11:38;5.53;;;5.10;;
2123;SDS011;1068;52.460;13.528;2023-04-01T13:14:11;5.30;;;4.80;;
2123;SDS011;1068;52.460;13.528;2023-04-01T13:16:41;5.00;;;4.60;;
2123;SDS011;1068;52.460;13.528;2023-04-01T13:19:11;4.70;;;4.30;;
2123;SDS011;1068;52.460;13.528;2023-04-01T13:21:45;5.17;;;4.67;;
2123;SDS011;1068;52.460;13.528;2023-04-01T13:24:21;5.57;;;5.07;;
2123;SDS011;1068;52.460;13.528;2023-04-01T13:26:53;5.63;;;5.13;;
2123;SDS011;1068;52.460;13.528;2023-04-01T13:29:25;5.27;;;4.80;;
2123;SDS011;1068;52.460;13.528;2023-04-01T13:31:59;5.67;;;5.20;;
2123;SDS011;1068;52.460;13.528;2023-04-01T13:34:35;5.00;;;4.50;;
2123;SDS011;1068;52.460;13.528;2023-04-01T13:37:14;4.63;;;4.30;;
2123;SDS011;1068;52.460;13.528;2023-04-01T13:39:45;4.90;;;4.60;;
2123;SDS011;1068;52.460;13.528;2023-04-01T13:42:17;4.93;;;4.50;;
2123;SDS011;1068;52.460;13.528;2023-04-01T13:44:46;3.87;;;3.57;;
2123;SDS011;1068;52.460;13.528;2023-04-01T13:47:25;5.50;;;5.10;;
2123;SDS011;1068;52.460;13.528;2023-04-01T13:50:00;4.40;;;4.03;;
2123;SDS011;1068;52.460;13.528;2023-04-01T13:52:36;4.00;;;3.50;;
2123;SDS011;1068;52.460;13.528;2023-04-01T13:55:18;3.17;;;2.70;;
2123;SDS011;1068;52.460;13.528;2023-04-01T13:57:52;3.83;;;3.50;;
2123;SDS011;1068;52.460;13.528;2023-04-01T14:00:30;4.67;;;2.90;;
2123;SDS011;1068;52.460;13.528;2023-04-01T14:03:09;3.73;;;3.43;;
2123;SDS011;1068;52.460;13.528;2023-04-01T14:05:44;3.53;;;3.33;;
2123;SDS011;1068;52.460;13.528;2023-04-01T14:08:19;3.40;;;3.10;;
2123;SDS011;1068;52.460;13.528;2023-04-01T14:10:48;5.10;;;3.50;;
2123;SDS011;1068;52.460;13.528;2023-04-01T14:13:22;4.90;;;4.20;;
2123;SDS011;1068;52.460;13.528;2023-04-01T14:15:53;3.90;;;3.60;;
2123;SDS011;1068;52.460;13.528;2023-04-01T14:18:32;4.00;;;3.70;;
2123;SDS011;1068;52.460;13.528;2023-04-01T14:21:05;4.93;;;4.47;;
2123;SDS011;1068;52.460;13.528;2023-04-01T14:23:49;4.20;;;3.90;;
2123;SDS011;1068;52.460;13.528;2023-04-01T14:26:22;4.67;;;4.17;;
2123;SDS011;1068;52.460;13.528;2023-04-01T14:28:55;3.47;;;3.17;;
2123;SDS011;1068;52.460;13.528;2023-04-01T14:31:27;3.40;;;3.10;;
2123;SDS011;1068;52.460;13.528;2023-04-01T14:34:00;3.37;;;3.07;;
2123;SDS011;1068;52.460;13.528;2023-04-01T14:36:50;3.10;;;2.90;;
2123;SDS011;1068;52.460;13.528;2023-04-01T14:39:26;2.93;;;2.63;;
2123;SDS011;1068;52.460;13.528;2023-04-01T14:41:59;2.30;;;2.10;;
2123;SDS011;1068;52.460;13.528;2023-04-01T14:44:43;1.80;;;1.70;;
2123;SDS011;1068;52.460;13.528;2023-04-01T14:47:28;2.47;;;2.07;;
2123;SDS011;1068;52.460;13.528;2023-04-01T14:50:06;1.73;;;1.63;;
2123;SDS011;1068;52.460;13.528;2023-04-01T14:52:35;2.03;;;1.93;;
2123;SDS011;1068;52.460;13.528;2023-04-01T14:55:04;1.63;;;1.47;;
2123;SDS011;1068;52.460;13.528;2023-04-01T14:57:38;1.67;;;1.57;;
2123;SDS011;1068;52.460;13.528;2023-04-01T15:00:12;2.17;;;1.70;;
2123;SDS011;1068;52.460;13.528;2023-04-01T15:02:45;2.10;;;1.73;;
2123;SDS011;1068;52.460;13.528;2023-04-01T15:05:15;2.10;;;1.90;;
2123;SDS011;1068;52.460;13.528;2023-04-01T15:07:52;1.73;;;1.63;;
2123;SDS011;1068;52.460;13.528;2023-04-01T15:13:15;2.27;;;1.80;;
2123;SDS011;1068;52.460;13.528;2023-04-01T15:15:48;6.73;;;2.00;;
2123;SDS011;1068;52.460;13.528;2023-04-01T15:18:17;1.53;;;1.43;;
2123;SDS011;1068;52.460;13.528;2023-04-01T15:20:55;2.47;;;2.27;;
2123;SDS011;1068;52.460;13.528;2023-04-01T15:23:28;1.90;;;1.80;;
2123;SDS011;1068;52.460;13.528;2023-04-01T15:26:10;2.47;;;2.27;;
2123;SDS011;1068;52.460;13.528;2023-04-01T15:28:42;2.27;;;2.07;;
2123;SDS011;1068;52.460;13.528;2023-04-01T15:31:14;2.20;;;2.10;;
2123;SDS011;1068;52.460;13.528;2023-04-01T15:33:45;2.27;;;2.10;;
2123;SDS011;1068;52.460;13.528;2023-04-01T15:36:18;2.97;;;2.37;;
2123;SDS011;1068;52.460;13.528;2023-04-01T15:38:48;5.67;;;2.47;;
2123;SDS011;1068;52.460;13.528;2023-04-01T15:41:17;2.43;;;2.33;;
2123;SDS011;1068;52.460;13.528;2023-04-01T15:43:47;2.93;;;2.10;;
2123;SDS011;1068;52.460;13.528;2023-04-01T15:46:18;4.57;;;2.47;;
2123;SDS011;1068;52.460;13.528;2023-04-01T15:48:50;2.00;;;1.90;;
2123;SDS011;1068;52.460;13.528;2023-04-01T15:54:14;3.40;;;3.20;;
2123;SDS011;1068;52.460;13.528;2023-04-01T15:56:56;2.47;;;2.30;;
2123;SDS011;1068;52.460;13.528;2023-04-01T15:59:39;2.53;;;2.33;;
2123;SDS011;1068;52.460;13.528;2023-04-01T16:02:10;3.00;;;2.80;;
2123;SDS011;1068;52.460;13.528;2023-04-01T16:04:51;3.03;;;2.80;;
2123;SDS011;1068;52.460;13.528;2023-04-01T16:07:24;2.30;;;2.10;;
2123;SDS011;1068;52.460;13.528;2023-04-01T16:09:59;2.50;;;2.30;;
2123;SDS011;1068;52.460;13.528;2023-04-01T16:12:33;2.00;;;1.90;;
2123;SDS011;1068;52.460;13.528;2023-04-01T16:15:06;2.80;;;2.60;;